sensor_id;sensor_type;location;lat;lon;timestamp;P1;durP1;ratioP1;P2;durP2;ratioP2
36189;SDS011;22232;50.914;13.858;2023-10-08T00:01:28;12.75;;;4.63;;
36189;SDS011;22232;50.914;13.858;2023-10-08T00:03:55;10.23;;;4.38;;
36189;SDS011;22232;50.914;13.858;2023-10-08T00:06:27;8.45;;;3.63;;
36189;SDS011;22232;50.914;13.858;2023-10-08T00:08:55;11.88;;;4.00;;
36189;SDS011;22232;50.914;13.858;2023-10-08T00:11:27;13.10;;;4.10;;
36189;SDS011;22232;50.914;13.858;2023-10-08T00:13:58;11.23;;;4.68;;
36189;SDS011;22232;50.914;13.858;2023-10-08T00:16:28;8.85;;;4.55;;
36189;SDS011;22232;50.914;13.858;2023-10-08T00:18:56;8.73;;;4.50;;
36189;SDS011;22232;50.914;13.858;2023-10-08T00:21:27;9.77;;;4.50;;
36189;SDS011;22232;50.914;13.858;2023-10-08T00:23:55;9.68;;;4.20;;
36189;SDS011;22232;50.914;13.858;2023-10-08T00:26:27;10.85;;;4.32;;
36189;SDS011;22232;50.914;13.858;2023-10-08T00:29:00;10.88;;;4.72;;
36189;SDS011;22232;50.914;13.858;2023-10-08T00:31:33;10.90;;;4.95;;
36189;SDS011;22232;50.914;13.858;2023-10-08T00:34:05;12.98;;;4.00;;
36189;SDS011;22232;50.914;13.858;2023-10-08T00:36:35;8.10;;;4.50;;
36189;SDS011;22232;50.914;13.858;2023-10-08T00:39:04;10.05;;;4.43;;
36189;SDS011;22232;50.914;13.858;2023-10-08T00:41:41;14.40;;;4.05;;
36189;SDS011;22232;50.914;13.858;2023-10-08T00:44:11;9.60;;;4.38;;
36189;SDS011;22232;50.914;13.858;2023-10-08T00:46:43;9.35;;;4.32;;
36189;SDS011;22232;50.914;13.858;2023-10-08T00:49:22;11.80;;;5.25;;
36189;SDS011;22232;50.914;13.858;2023-10-08T00:52:23;8.40;;;4.40;;
36189;SDS011;22232;50.914;13.858;2023-10-08T00:54:54;11.80;;;4.75;;
36189;SDS011;22232;50.914;13.858;2023-10-08T00:57:33;11.55;;;4.72;;
36189;SDS011;22232;50.914;13.858;2023-10-08T01:00:10;11.90;;;4.20;;
36189;SDS011;22232;50.914;13.858;2023-10-08T01:02:44;10.27;;;4.28;;
36189;SDS011;22232;50.914;13.858;2023-10-08T01:05:22;18.23;;;4.78;;
36189;SDS011;22232;50.914;13.858;2023-10-08T01:08:04;13.90;;;4.57;;
36189;SDS011;22232;50.914;13.858;2023-10-08T01:10:35;9.10;;;4.55;;
36189;SDS011;22232;50.914;13.858;2023-10-08T01:13:03;9.95;;;4.78;;
36189;SDS011;22232;50.914;13.858;2023-10-08T01:15:42;10.73;;;4.90;;
36189;SDS011;22232;50.914;13.858;2023-10-08T01:18:12;13.52;;;5.00;;
36189;SDS011;22232;50.914;13.858;2023-10-08T01:20:44;17.70;;;5.60;;
36189;SDS011;22232;50.914;13.858;2023-10-08T01:23:15;13.98;;;4.78;;
36189;SDS011;22232;50.914;13.858;2023-10-08T01:25:48;18.58;;;5.22;;
36189;SDS011;22232;50.914;13.858;2023-10-08T01:28:22;12.13;;;5.10;;
36189;SDS011;22232;50.914;13.858;2023-10-08T01:30:57;11.00;;;4.93;;
36189;SDS011;22232;50.914;13.858;2023-10-08T01:33:28;12.52;;;4.60;;
36189;SDS011;22232;50.914;13.858;2023-10-08T01:35:56;10.35;;;5.13;;
36189;SDS011;22232;50.914;13.858;2023-10-08T01:38:30;14.70;;;5.93;;
36189;SDS011;22232;50.914;13.858;2023-10-08T01:41:02;10.70;;;5.38;;
36189;SDS011;22232;50.914;13.858;2023-10-08T01:43:32;13.77;;;5.22;;
36189;SDS011;22232;50.914;13.858;2023-10-08T01:46:02;13.50;;;5.72;;
36189;SDS011;22232;50.914;13.858;2023-10-08T01:48:30;13.27;;;5.80;;
36189;SDS011;22232;50.914;13.858;2023-10-08T01:51:05;10.82;;;5.68;;
36189;SDS011;22232;50.914;13.858;2023-10-08T01:53:53;10.88;;;5.65;;
36189;SDS011;22232;50.914;13.858;2023-10-08T01:56:22;12.77;;;5.82;;
36189;SDS011;22232;50.914;13.858;2023-10-08T01:58:51;20.65;;;6.63;;
36189;SDS011;22232;50.914;13.858;2023-10-08T02:01:19;14.32;;;5.82;;
36189;SDS011;22232;50.914;13.858;2023-10-08T02:03:47;12.20;;;5.80;;
36189;SDS011;22232;50.914;13.858;2023-10-08T02:06:16;13.73;;;6.13;;
36189;SDS011;22232;50.914;13.858;2023-10-08T02:08:43;12.32;;;5.97;;
36189;SDS011;22232;50.914;13.858;2023-10-08T02:11:11;12.77;;;6.50;;
36189;SDS011;22232;50.914;13.858;2023-10-08T02:13:39;16.13;;;7.32;;
36189;SDS011;22232;50.914;13.858;2023-10-08T02:16:06;19.75;;;9.05;;
36189;SDS011;22232;50.914;13.858;2023-10-08T02:18:34;14.82;;;9.45;;
36189;SDS011;22232;50.914;13.858;2023-10-08T02:21:02;13.75;;;9.85;;
36189;SDS011;22232;50.914;13.858;2023-10-08T02:23:33;15.77;;;10.05;;
36189;SDS011;22232;50.914;13.858;2023-10-08T02:26:02;14.98;;;9.82;;
36189;SDS011;22232;50.914;13.858;2023-10-08T02:28:30;15.10;;;8.55;;
36189;SDS011;22232;50.914;13.858;2023-10-08T02:30:57;9.55;;;5.45;;
36189;SDS011;22232;50.914;13.858;2023-10-08T02:33:26;2.88;;;2.30;;
36189;SDS011;22232;50.914;13.858;2023-10-08T02:35:54;3.17;;;1.70;;
36189;SDS011;22232;50.914;13.858;2023-10-08T02:38:21;2.60;;;1.40;;
36189;SDS011;22232;50.914;13.858;2023-10-08T02:40:50;0.93;;;0.93;;
36189;SDS011;22232;50.914;13.858;2023-10-08T02:43:18;0.65;;;0.65;;
36189;SDS011;22232;50.914;13.858;2023-10-08T02:45:47;0.50;;;0.47;;
36189;SDS011;22232;50.914;13.858;2023-10-08T02:48:17;0.35;;;0.35;;
36189;SDS011;22232;50.914;13.858;2023-10-08T02:50:48;0.30;;;0.30;;
36189;SDS011;22232;50.914;13.858;2023-10-08T02:53:15;0.30;;;0.30;;
36189;SDS011;22232;50.914;13.858;2023-10-08T02:55:51;0.10;;;0.10;;
36189;SDS011;22232;50.914;13.858;2023-10-08T02:58:21;0.10;;;0.10;;
36189;SDS011;22232;50.914;13.858;2023-10-08T03:00:49;0.10;;;0.10;;
36189;SDS011;22232;50.914;13.858;2023-10-08T03:03:17;0.28;;;0.10;;
36189;SDS011;22232;50.914;13.858;2023-10-08T03:05:52;0.20;;;0.13;;
36189;SDS011;22232;50.914;13.858;2023-10-08T03:08:20;0.10;;;0.10;;
36189;SDS011;22232;50.914;13.858;2023-10-08T03:10:49;0.20;;;0.20;;
36189;SDS011;22232;50.914;13.858;2023-10-08T03:13:24;0.20;;;0.15;;
36189;SDS011;22232;50.914;13.858;2023-10-08T03:15:53;0.20;;;0.20;;
36189;SDS011;22232;50.914;13.858;2023-10-08T03:18:30;5.13;;;0.20;;
36189;SDS011;22232;50.914;13.858;2023-10-08T03:21:05;0.10;;;0.10;;
36189;SDS011;22232;50.914;13.858;2023-10-08T03:23:51;0.10;;;0.00;;
36189;SDS011;22232;50.914;13.858;2023-10-08T03:26:19;0.10;;;0.10;;
36189;SDS011;22232;50.914;13.858;2023-10-08T03:28:56;0.10;;;0.10;;
36189;SDS011;22232;50.914;13.858;2023-10-08T03:31:27;0.20;;;0.20;;
36189;SDS011;22232;50.914;13.858;2023-10-08T03:34:16;0.20;;;0.20;;
36189;SDS011;22232;50.914;13.858;2023-10-08T03:36:46;0.10;;;0.10;;
36189;SDS011;22232;50.914;13.858;2023-10-08T03:39:17;0.20;;;0.20;;
36189;SDS011;22232;50.914;13.858;2023-10-08T03:41:46;0.20;;;0.20;;
36189;SDS011;22232;50.914;13.858;2023-10-08T03:44:33;0.63;;;0.10;;
36189;SDS011;22232;50.914;13.858;2023-10-08T03:47:05;0.20;;;0.20;;
36189;SDS011;22232;50.914;13.858;2023-10-08T03:52:12;0.10;;;0.10;;
36189;SDS011;22232;50.914;13.858;2023-10-08T03:54:40;1.50;;;0.32;;
36189;SDS011;22232;50.914;13.858;2023-10-08T03:57:16;0.30;;;0.28;;
36189;SDS011;22232;50.914;13.858;2023-10-08T03:59:52;0.40;;;0.30;;
36189;SDS011;22232;50.914;13.858;2023-10-08T04:02:26;1.15;;;0.50;;
36189;SDS011;22232;50.914;13.858;2023-10-08T04:05:14;2.50;;;0.70;;
36189;SDS011;22232;50.914;13.858;2023-10-08T04:07:49;3.28;;;1.13;;
36189;SDS011;22232;50.914;13.858;2023-10-08T04:10:22;4.05;;;1.40;;
36189;SDS011;22232;50.914;13.858;2023-10-08T04:13:08;8.23;;;1.98;;
36189;SDS011;22232;50.914;13.858;2023-10-08T04:15:37;9.30;;;1.98;;
36189;SDS011;22232;50.914;13.858;2023-10-08T04:18:09;9.70;;;2.42;;
36189;SDS011;22232;50.914;13.858;2023-10-08T04:20:37;8.48;;;2.20;;
36189;SDS011;22232;50.914;13.858;2023-10-08T04:23:06;6.78;;;2.33;;
36189;SDS011;22232;50.914;13.858;2023-10-08T04:25:45;6.20;;;2.00;;
36189;SDS011;22232;50.914;13.858;2023-10-08T04:28:14;7.25;;;2.22;;
36189;SDS011;22232;50.914;13.858;2023-10-08T04:30:48;6.20;;;1.83;;
36189;SDS011;22232;50.914;13.858;2023-10-08T04:33:18;6.22;;;2.22;;
36189;SDS011;22232;50.914;13.858;2023-10-08T04:35:47;7.38;;;2.40;;
36189;SDS011;22232;50.914;13.858;2023-10-08T04:38:23;5.95;;;2.42;;
36189;SDS011;22232;50.914;13.858;2023-10-08T04:40:56;5.38;;;2.38;;
36189;SDS011;22232;50.914;13.858;2023-10-08T04:43:29;7.65;;;2.85;;
36189;SDS011;22232;50.914;13.858;2023-10-08T04:45:58;10.73;;;2.30;;
36189;SDS011;22232;50.914;13.858;2023-10-08T04:48:26;7.63;;;1.95;;
36189;SDS011;22232;50.914;13.858;2023-10-08T04:51:00;9.65;;;2.20;;
36189;SDS011;22232;50.914;13.858;2023-10-08T04:53:33;5.63;;;1.98;;
36189;SDS011;22232;50.914;13.858;2023-10-08T04:56:06;3.75;;;1.55;;
36189;SDS011;22232;50.914;13.858;2023-10-08T04:58:40;6.03;;;1.65;;
36189;SDS011;22232;50.914;13.858;2023-10-08T05:01:08;9.45;;;2.50;;
36189;SDS011;22232;50.914;13.858;2023-10-08T05:03:47;2.88;;;1.83;;
36189;SDS011;22232;50.914;13.858;2023-10-08T05:06:28;7.40;;;2.15;;
36189;SDS011;22232;50.914;13.858;2023-10-08T05:09:20;4.50;;;1.63;;
36189;SDS011;22232;50.914;13.858;2023-10-08T05:11:48;6.78;;;1.80;;
36189;SDS011;22232;50.914;13.858;2023-10-08T05:14:18;2.75;;;1.20;;
36189;SDS011;22232;50.914;13.858;2023-10-08T05:17:00;5.63;;;1.27;;
36189;SDS011;22232;50.914;13.858;2023-10-08T05:19:58;3.65;;;1.38;;
36189;SDS011;22232;50.914;13.858;2023-10-08T05:22:35;2.10;;;0.90;;
36189;SDS011;22232;50.914;13.858;2023-10-08T05:25:05;5.45;;;1.77;;
36189;SDS011;22232;50.914;13.858;2023-10-08T05:27:42;2.58;;;1.50;;
36189;SDS011;22232;50.914;13.858;2023-10-08T05:32:56;2.30;;;1.10;;
36189;SDS011;22232;50.914;13.858;2023-10-08T05:35:43;2.85;;;1.05;;
36189;SDS011;22232;50.914;13.858;2023-10-08T05:38:12;2.15;;;1.00;;
36189;SDS011;22232;50.914;13.858;2023-10-08T05:40:51;2.53;;;0.90;;
36189;SDS011;22232;50.914;13.858;2023-10-08T05:43:27;2.55;;;1.05;;
36189;SDS011;22232;50.914;13.858;2023-10-08T05:49:14;0.90;;;0.70;;
36189;SDS011;22232;50.914;13.858;2023-10-08T05:51:42;1.55;;;0.90;;
36189;SDS011;22232;50.914;13.858;2023-10-08T05:54:20;1.33;;;0.65;;
36189;SDS011;22232;50.914;13.858;2023-10-08T05:57:11;2.85;;;0.85;;
36189;SDS011;22232;50.914;13.858;2023-10-08T05:59:40;3.50;;;1.02;;
36189;SDS011;22232;50.914;13.858;2023-10-08T06:02:23;3.22;;;1.00;;
36189;SDS011;22232;50.914;13.858;2023-10-08T06:05:11;3.63;;;1.20;;
36189;SDS011;22232;50.914;13.858;2023-10-08T06:07:46;8.10;;;1.50;;
36189;SDS011;22232;50.914;13.858;2023-10-08T06:10:27;1.67;;;0.93;;
36189;SDS011;22232;50.914;13.858;2023-10-08T06:13:07;1.63;;;0.90;;
36189;SDS011;22232;50.914;13.858;2023-10-08T06:15:36;1.88;;;1.20;;
36189;SDS011;22232;50.914;13.858;2023-10-08T06:18:32;1.92;;;1.05;;
36189;SDS011;22232;50.914;13.858;2023-10-08T06:21:02;3.08;;;1.30;;
36189;SDS011;22232;50.914;13.858;2023-10-08T06:23:39;4.45;;;1.10;;
36189;SDS011;22232;50.914;13.858;2023-10-08T06:26:09;2.72;;;1.30;;
36189;SDS011;22232;50.914;13.858;2023-10-08T06:28:37;4.22;;;1.63;;
36189;SDS011;22232;50.914;13.858;2023-10-08T06:31:06;4.53;;;1.70;;
36189;SDS011;22232;50.914;13.858;2023-10-08T06:33:39;4.77;;;1.83;;
36189;SDS011;22232;50.914;13.858;2023-10-08T06:36:09;2.33;;;1.35;;
36189;SDS011;22232;50.914;13.858;2023-10-08T06:38:38;3.58;;;1.50;;
36189;SDS011;22232;50.914;13.858;2023-10-08T06:41:09;3.13;;;1.27;;
36189;SDS011;22232;50.914;13.858;2023-10-08T06:43:51;4.45;;;1.33;;
36189;SDS011;22232;50.914;13.858;2023-10-08T06:46:30;4.50;;;1.52;;
36189;SDS011;22232;50.914;13.858;2023-10-08T06:49:01;4.50;;;1.50;;
36189;SDS011;22232;50.914;13.858;2023-10-08T06:51:32;3.53;;;1.30;;
36189;SDS011;22232;50.914;13.858;2023-10-08T06:54:00;3.35;;;1.27;;
36189;SDS011;22232;50.914;13.858;2023-10-08T06:56:30;2.90;;;1.20;;
36189;SDS011;22232;50.914;13.858;2023-10-08T06:59:01;4.13;;;1.50;;
36189;SDS011;22232;50.914;13.858;2023-10-08T07:01:29;3.80;;;1.23;;
36189;SDS011;22232;50.914;13.858;2023-10-08T07:04:06;3.20;;;1.50;;
36189;SDS011;22232;50.914;13.858;2023-10-08T07:06:40;3.95;;;1.15;;
36189;SDS011;22232;50.914;13.858;2023-10-08T07:09:09;4.57;;;1.27;;
36189;SDS011;22232;50.914;13.858;2023-10-08T07:11:57;2.60;;;1.30;;
36189;SDS011;22232;50.914;13.858;2023-10-08T07:14:26;3.17;;;1.38;;
36189;SDS011;22232;50.914;13.858;2023-10-08T07:16:56;3.38;;;1.50;;
36189;SDS011;22232;50.914;13.858;2023-10-08T07:19:28;2.45;;;1.25;;
36189;SDS011;22232;50.914;13.858;2023-10-08T07:22:09;3.97;;;1.33;;
36189;SDS011;22232;50.914;13.858;2023-10-08T07:24:50;4.17;;;1.20;;
36189;SDS011;22232;50.914;13.858;2023-10-08T07:27:21;3.92;;;1.33;;
36189;SDS011;22232;50.914;13.858;2023-10-08T07:29:51;4.65;;;1.30;;
36189;SDS011;22232;50.914;13.858;2023-10-08T07:32:24;3.70;;;1.30;;
36189;SDS011;22232;50.914;13.858;2023-10-08T07:34:53;3.78;;;1.20;;
36189;SDS011;22232;50.914;13.858;2023-10-08T07:37:31;4.68;;;1.30;;
36189;SDS011;22232;50.914;13.858;2023-10-08T07:40:00;1.80;;;1.15;;
36189;SDS011;22232;50.914;13.858;2023-10-08T07:42:30;4.20;;;1.13;;
36189;SDS011;22232;50.914;13.858;2023-10-08T07:44:59;1.58;;;1.15;;
36189;SDS011;22232;50.914;13.858;2023-10-08T07:47:28;3.60;;;1.27;;
36189;SDS011;22232;50.914;13.858;2023-10-08T07:49:56;2.83;;;1.20;;
36189;SDS011;22232;50.914;13.858;2023-10-08T07:52:23;4.70;;;1.33;;
36189;SDS011;22232;50.914;13.858;2023-10-08T07:54:51;2.42;;;1.38;;
36189;SDS011;22232;50.914;13.858;2023-10-08T07:57:20;4.78;;;1.63;;
36189;SDS011;22232;50.914;13.858;2023-10-08T07:59:54;5.70;;;1.38;;
36189;SDS011;22232;50.914;13.858;2023-10-08T08:02:23;4.53;;;1.42;;
36189;SDS011;22232;50.914;13.858;2023-10-08T08:04:51;2.65;;;1.30;;
36189;SDS011;22232;50.914;13.858;2023-10-08T08:07:20;2.70;;;1.20;;
36189;SDS011;22232;50.914;13.858;2023-10-08T08:09:49;3.50;;;1.40;;
36189;SDS011;22232;50.914;13.858;2023-10-08T08:12:22;3.13;;;1.00;;
36189;SDS011;22232;50.914;13.858;2023-10-08T08:14:50;5.60;;;1.27;;
36189;SDS011;22232;50.914;13.858;2023-10-08T08:17:18;2.70;;;1.23;;
36189;SDS011;22232;50.914;13.858;2023-10-08T08:19:47;2.08;;;1.40;;
36189;SDS011;22232;50.914;13.858;2023-10-08T08:22:17;1.70;;;0.90;;
36189;SDS011;22232;50.914;13.858;2023-10-08T08:24:53;4.93;;;1.55;;
36189;SDS011;22232;50.914;13.858;2023-10-08T08:27:43;3.33;;;1.50;;
36189;SDS011;22232;50.914;13.858;2023-10-08T08:30:13;4.75;;;1.70;;
36189;SDS011;22232;50.914;13.858;2023-10-08T08:32:45;5.18;;;1.55;;
36189;SDS011;22232;50.914;13.858;2023-10-08T08:35:19;3.88;;;1.35;;
36189;SDS011;22232;50.914;13.858;2023-10-08T08:37:47;3.17;;;1.10;;
36189;SDS011;22232;50.914;13.858;2023-10-08T08:40:18;2.47;;;1.38;;
36189;SDS011;22232;50.914;13.858;2023-10-08T08:42:50;2.50;;;1.30;;
36189;SDS011;22232;50.914;13.858;2023-10-08T08:45:24;3.30;;;1.35;;
36189;SDS011;22232;50.914;13.858;2023-10-08T08:47:52;4.32;;;1.92;;
36189;SDS011;22232;50.914;13.858;2023-10-08T08:50:20;2.63;;;1.90;;
36189;SDS011;22232;50.914;13.858;2023-10-08T08:52:49;2.78;;;1.50;;
36189;SDS011;22232;50.914;13.858;2023-10-08T08:55:19;3.47;;;1.63;;
36189;SDS011;22232;50.914;13.858;2023-10-08T08:57:48;5.80;;;1.92;;
36189;SDS011;22232;50.914;13.858;2023-10-08T09:00:19;6.03;;;1.90;;
36189;SDS011;22232;50.914;13.858;2023-10-08T09:02:48;5.10;;;2.10;;
36189;SDS011;22232;50.914;13.858;2023-10-08T09:05:17;3.92;;;1.38;;
36189;SDS011;22232;50.914;13.858;2023-10-08T09:07:58;5.22;;;1.77;;
36189;SDS011;22232;50.914;13.858;2023-10-08T09:10:31;4.55;;;1.80;;
36189;SDS011;22232;50.914;13.858;2023-10-08T09:13:05;5.32;;;1.88;;
36189;SDS011;22232;50.914;13.858;2023-10-08T09:15:35;6.75;;;2.15;;
36189;SDS011;22232;50.914;13.858;2023-10-08T09:18:03;4.90;;;1.98;;
36189;SDS011;22232;50.914;13.858;2023-10-08T09:20:36;3.60;;;1.83;;
36189;SDS011;22232;50.914;13.858;2023-10-08T09:23:11;3.97;;;1.75;;
36189;SDS011;22232;50.914;13.858;2023-10-08T09:25:42;9.35;;;3.05;;
36189;SDS011;22232;50.914;13.858;2023-10-08T09:28:11;9.50;;;2.28;;
36189;SDS011;22232;50.914;13.858;2023-10-08T09:30:42;6.68;;;2.47;;
36189;SDS011;22232;50.914;13.858;2023-10-08T09:33:13;11.65;;;4.03;;
36189;SDS011;22232;50.914;13.858;2023-10-08T09:35:42;5.47;;;2.10;;
36189;SDS011;22232;50.914;13.858;2023-10-08T09:38:13;5.93;;;2.50;;
36189;SDS011;22232;50.914;13.858;2023-10-08T09:40:41;3.70;;;1.80;;
36189;SDS011;22232;50.914;13.858;2023-10-08T09:43:12;8.02;;;2.30;;
36189;SDS011;22232;50.914;13.858;2023-10-08T09:45:43;5.80;;;2.05;;
36189;SDS011;22232;50.914;13.858;2023-10-08T09:48:17;11.38;;;2.80;;
36189;SDS011;22232;50.914;13.858;2023-10-08T09:50:47;11.00;;;2.83;;
36189;SDS011;22232;50.914;13.858;2023-10-08T09:53:19;5.15;;;2.63;;
36189;SDS011;22232;50.914;13.858;2023-10-08T09:55:56;7.70;;;2.42;;
36189;SDS011;22232;50.914;13.858;2023-10-08T09:58:25;6.50;;;2.40;;
36189;SDS011;22232;50.914;13.858;2023-10-08T10:00:55;9.00;;;2.40;;
36189;SDS011;22232;50.914;13.858;2023-10-08T10:03:25;8.27;;;3.05;;
36189;SDS011;22232;50.914;13.858;2023-10-08T10:05:55;5.95;;;2.95;;
36189;SDS011;22232;50.914;13.858;2023-10-08T10:08:28;6.07;;;2.65;;
36189;SDS011;22232;50.914;13.858;2023-10-08T10:11:03;7.95;;;2.53;;
36189;SDS011;22232;50.914;13.858;2023-10-08T10:13:34;6.07;;;2.50;;
36189;SDS011;22232;50.914;13.858;2023-10-08T10:16:09;6.97;;;2.80;;
36189;SDS011;22232;50.914;13.858;2023-10-08T10:18:43;6.20;;;2.65;;
36189;SDS011;22232;50.914;13.858;2023-10-08T10:23:43;7.63;;;2.65;;
36189;SDS011;22232;50.914;13.858;2023-10-08T10:26:21;6.65;;;2.67;;
36189;SDS011;22232;50.914;13.858;2023-10-08T10:31:38;9.35;;;4.35;;
36189;SDS011;22232;50.914;13.858;2023-10-08T10:34:12;6.43;;;3.33;;
36189;SDS011;22232;50.914;13.858;2023-10-08T10:36:44;10.60;;;3.05;;
36189;SDS011;22232;50.914;13.858;2023-10-08T10:39:17;9.77;;;5.10;;
36189;SDS011;22232;50.914;13.858;2023-10-08T10:41:54;7.57;;;2.33;;
36189;SDS011;22232;50.914;13.858;2023-10-08T10:44:24;7.95;;;2.47;;
36189;SDS011;22232;50.914;13.858;2023-10-08T10:46:52;10.75;;;4.05;;
36189;SDS011;22232;50.914;13.858;2023-10-08T10:49:38;14.25;;;7.68;;
36189;SDS011;22232;50.914;13.858;2023-10-08T10:52:28;7.07;;;3.25;;
36189;SDS011;22232;50.914;13.858;2023-10-08T10:57:46;7.75;;;2.45;;
36189;SDS011;22232;50.914;13.858;2023-10-08T11:00:24;40.40;;;21.92;;
36189;SDS011;22232;50.914;13.858;2023-10-08T11:02:59;55.67;;;36.28;;
36189;SDS011;22232;50.914;13.858;2023-10-08T11:05:32;34.38;;;18.92;;
36189;SDS011;22232;50.914;13.858;2023-10-08T11:08:05;16.13;;;9.48;;
36189;SDS011;22232;50.914;13.858;2023-10-08T11:10:38;45.05;;;25.48;;
36189;SDS011;22232;50.914;13.858;2023-10-08T11:13:06;15.90;;;6.82;;
36189;SDS011;22232;50.914;13.858;2023-10-08T11:15:42;8.55;;;4.30;;
36189;SDS011;22232;50.914;13.858;2023-10-08T11:18:10;14.00;;;9.00;;
36189;SDS011;22232;50.914;13.858;2023-10-08T11:20:43;15.80;;;11.20;;
36189;SDS011;22232;50.914;13.858;2023-10-08T11:24:26;7.82;;;2.80;;
36189;SDS011;22232;50.914;13.858;2023-10-08T11:26:20;8.75;;;5.78;;
36189;SDS011;22232;50.914;13.858;2023-10-08T11:28:59;7.07;;;2.10;;
36189;SDS011;22232;50.914;13.858;2023-10-08T11:31:29;5.07;;;2.20;;
36189;SDS011;22232;50.914;13.858;2023-10-08T11:34:03;6.28;;;3.00;;
36189;SDS011;22232;50.914;13.858;2023-10-08T11:36:41;8.95;;;3.05;;
36189;SDS011;22232;50.914;13.858;2023-10-08T11:39:17;10.93;;;6.85;;
36189;SDS011;22232;50.914;13.858;2023-10-08T11:42:00;21.90;;;14.20;;
36189;SDS011;22232;50.914;13.858;2023-10-08T11:44:44;9.65;;;5.22;;
36189;SDS011;22232;50.914;13.858;2023-10-08T11:47:12;4.93;;;2.50;;
36189;SDS011;22232;50.914;13.858;2023-10-08T11:49:41;6.53;;;2.70;;
36189;SDS011;22232;50.914;13.858;2023-10-08T11:52:18;5.22;;;2.08;;
36189;SDS011;22232;50.914;13.858;2023-10-08T11:54:49;7.13;;;2.33;;
36189;SDS011;22232;50.914;13.858;2023-10-08T11:57:20;10.75;;;2.13;;
36189;SDS011;22232;50.914;13.858;2023-10-08T11:59:50;6.05;;;2.08;;
36189;SDS011;22232;50.914;13.858;2023-10-08T12:02:22;7.05;;;1.90;;
36189;SDS011;22232;50.914;13.858;2023-10-08T12:04:50;5.30;;;1.90;;
36189;SDS011;22232;50.914;13.858;2023-10-08T12:07:19;5.53;;;2.47;;
36189;SDS011;22232;50.914;13.858;2023-10-08T12:09:46;6.35;;;2.40;;
36189;SDS011;22232;50.914;13.858;2023-10-08T12:12:16;5.00;;;3.03;;
36189;SDS011;22232;50.914;13.858;2023-10-08T12:14:48;8.38;;;3.65;;
36189;SDS011;22232;50.914;13.858;2023-10-08T12:17:17;7.15;;;3.60;;
36189;SDS011;22232;50.914;13.858;2023-10-08T12:19:44;6.75;;;4.10;;
36189;SDS011;22232;50.914;13.858;2023-10-08T12:22:12;5.65;;;2.30;;
36189;SDS011;22232;50.914;13.858;2023-10-08T12:24:45;6.30;;;2.53;;
36189;SDS011;22232;50.914;13.858;2023-10-08T12:27:14;4.97;;;3.00;;
36189;SDS011;22232;50.914;13.858;2023-10-08T12:29:44;6.90;;;2.47;;
36189;SDS011;22232;50.914;13.858;2023-10-08T12:32:11;7.90;;;2.35;;
36189;SDS011;22232;50.914;13.858;2023-10-08T12:34:45;4.67;;;2.30;;
36189;SDS011;22232;50.914;13.858;2023-10-08T12:37:14;5.22;;;2.40;;
36189;SDS011;22232;50.914;13.858;2023-10-08T12:39:42;14.10;;;8.82;;
36189;SDS011;22232;50.914;13.858;2023-10-08T12:42:27;7.20;;;3.90;;
36189;SDS011;22232;50.914;13.858;2023-10-08T12:44:55;6.63;;;2.67;;
36189;SDS011;22232;50.914;13.858;2023-10-08T12:47:25;6.63;;;3.67;;
36189;SDS011;22232;50.914;13.858;2023-10-08T12:49:56;9.85;;;6.60;;
36189;SDS011;22232;50.914;13.858;2023-10-08T12:52:24;9.10;;;4.05;;
36189;SDS011;22232;50.914;13.858;2023-10-08T12:54:55;6.35;;;3.00;;
36189;SDS011;22232;50.914;13.858;2023-10-08T12:57:25;25.33;;;15.40;;
36189;SDS011;22232;50.914;13.858;2023-10-08T13:02:30;5.15;;;2.10;;
36189;SDS011;22232;50.914;13.858;2023-10-08T13:04:58;9.63;;;3.47;;
36189;SDS011;22232;50.914;13.858;2023-10-08T13:07:27;8.05;;;3.05;;
36189;SDS011;22232;50.914;13.858;2023-10-08T13:09:54;7.72;;;2.80;;
36189;SDS011;22232;50.914;13.858;2023-10-08T13:12:22;8.23;;;2.90;;
36189;SDS011;22232;50.914;13.858;2023-10-08T13:14:49;6.97;;;2.45;;
36189;SDS011;22232;50.914;13.858;2023-10-08T13:17:17;5.95;;;2.58;;
36189;SDS011;22232;50.914;13.858;2023-10-08T13:19:46;5.78;;;2.17;;
36189;SDS011;22232;50.914;13.858;2023-10-08T13:22:14;8.35;;;2.53;;
36189;SDS011;22232;50.914;13.858;2023-10-08T13:24:47;6.38;;;2.45;;
36189;SDS011;22232;50.914;13.858;2023-10-08T13:27:16;6.47;;;2.13;;
36189;SDS011;22232;50.914;13.858;2023-10-08T13:29:43;7.93;;;2.35;;
36189;SDS011;22232;50.914;13.858;2023-10-08T13:32:11;8.80;;;4.30;;
36189;SDS011;22232;50.914;13.858;2023-10-08T13:37:13;9.48;;;3.80;;
36189;SDS011;22232;50.914;13.858;2023-10-08T13:39:42;4.47;;;2.10;;
36189;SDS011;22232;50.914;13.858;2023-10-08T13:42:10;4.30;;;1.85;;
36189;SDS011;22232;50.914;13.858;2023-10-08T13:47:12;7.53;;;2.20;;
36189;SDS011;22232;50.914;13.858;2023-10-08T13:49:42;8.65;;;2.80;;
36189;SDS011;22232;50.914;13.858;2023-10-08T13:52:10;8.32;;;2.70;;
36189;SDS011;22232;50.914;13.858;2023-10-08T13:54:38;6.50;;;2.00;;
36189;SDS011;22232;50.914;13.858;2023-10-08T13:57:09;29.35;;;19.50;;
36189;SDS011;22232;50.914;13.858;2023-10-08T13:59:42;11.25;;;8.80;;
36189;SDS011;22232;50.914;13.858;2023-10-08T14:02:09;6.35;;;4.82;;
36189;SDS011;22232;50.914;13.858;2023-10-08T14:04:49;5.72;;;1.80;;
36189;SDS011;22232;50.914;13.858;2023-10-08T14:07:17;5.70;;;1.75;;
36189;SDS011;22232;50.914;13.858;2023-10-08T14:09:45;7.18;;;2.90;;
36189;SDS011;22232;50.914;13.858;2023-10-08T14:12:13;6.53;;;1.95;;
36189;SDS011;22232;50.914;13.858;2023-10-08T14:14:41;8.10;;;2.20;;
36189;SDS011;22232;50.914;13.858;2023-10-08T14:17:11;7.45;;;3.38;;
36189;SDS011;22232;50.914;13.858;2023-10-08T14:19:42;6.38;;;2.97;;
36189;SDS011;22232;50.914;13.858;2023-10-08T14:24:54;9.98;;;2.80;;
36189;SDS011;22232;50.914;13.858;2023-10-08T14:27:28;3.88;;;2.10;;
36189;SDS011;22232;50.914;13.858;2023-10-08T14:30:00;5.85;;;2.88;;
36189;SDS011;22232;50.914;13.858;2023-10-08T14:32:28;10.40;;;3.83;;
36189;SDS011;22232;50.914;13.858;2023-10-08T14:34:59;10.95;;;6.20;;
36189;SDS011;22232;50.914;13.858;2023-10-08T14:37:45;40.15;;;20.60;;
36189;SDS011;22232;50.914;13.858;2023-10-08T14:40:32;91.88;;;47.88;;
36189;SDS011;22232;50.914;13.858;2023-10-08T14:43:18;11.68;;;6.55;;
36189;SDS011;22232;50.914;13.858;2023-10-08T14:45:50;13.68;;;6.07;;
36189;SDS011;22232;50.914;13.858;2023-10-08T14:48:20;16.98;;;8.80;;
36189;SDS011;22232;50.914;13.858;2023-10-08T14:50:48;16.33;;;10.18;;
36189;SDS011;22232;50.914;13.858;2023-10-08T14:53:16;19.95;;;10.10;;
36189;SDS011;22232;50.914;13.858;2023-10-08T14:55:44;23.63;;;11.43;;
36189;SDS011;22232;50.914;13.858;2023-10-08T14:58:11;23.05;;;11.63;;
36189;SDS011;22232;50.914;13.858;2023-10-08T15:00:39;38.05;;;19.98;;
36189;SDS011;22232;50.914;13.858;2023-10-08T15:03:09;25.00;;;14.65;;
36189;SDS011;22232;50.914;13.858;2023-10-08T15:05:39;22.98;;;11.05;;
36189;SDS011;22232;50.914;13.858;2023-10-08T15:08:07;4.82;;;2.63;;
36189;SDS011;22232;50.914;13.858;2023-10-08T15:10:38;11.95;;;4.75;;
36189;SDS011;22232;50.914;13.858;2023-10-08T15:13:07;15.10;;;7.05;;
36189;SDS011;22232;50.914;13.858;2023-10-08T15:15:35;14.32;;;7.43;;
36189;SDS011;22232;50.914;13.858;2023-10-08T15:18:03;15.43;;;7.50;;
36189;SDS011;22232;50.914;13.858;2023-10-08T15:20:31;8.88;;;4.93;;
36189;SDS011;22232;50.914;13.858;2023-10-08T15:23:00;10.95;;;4.75;;
36189;SDS011;22232;50.914;13.858;2023-10-08T15:25:28;9.85;;;3.90;;
36189;SDS011;22232;50.914;13.858;2023-10-08T15:27:56;15.32;;;6.45;;